sensor_id;sensor_type;location;lat;lon;timestamp;temperature;humidity
2907;DHT22;1463;51.070;16.998;2024-03-08T00:00:46;4.10;99.90
2907;DHT22;1463;51.070;16.998;2024-03-08T00:03:14;4.00;99.90
2907;DHT22;1463;51.070;16.998;2024-03-08T00:05:40;4.10;99.90
2907;DHT22;1463;51.070;16.998;2024-03-08T00:08:07;4.10;99.90
2907;DHT22;1463;51.070;16.998;2024-03-08T00:10:35;4.00;99.90
2907;DHT22;1463;51.070;16.998;2024-03-08T00:13:04;3.90;99.90
2907;DHT22;1463;51.070;16.998;2024-03-08T00:15:32;3.90;99.90
2907;DHT22;1463;51.070;16.998;2024-03-08T00:17:58;3.90;99.90
2907;DHT22;1463;51.070;16.998;2024-03-08T00:20:26;3.90;99.90
2907;DHT22;1463;51.070;16.998;2024-03-08T00:22:53;3.80;99.90
2907;DHT22;1463;51.070;16.998;2024-03-08T00:25:23;3.80;99.90
2907;DHT22;1463;51.070;16.998;2024-03-08T00:27:50;3.80;99.90
2907;DHT22;1463;51.070;16.998;2024-03-08T00:30:17;3.70;99.90
2907;DHT22;1463;51.070;16.998;2024-03-08T00:32:43;3.70;99.90
2907;DHT22;1463;51.070;16.998;2024-03-08T00:35:10;3.70;99.90
2907;DHT22;1463;51.070;16.998;2024-03-08T00:37:39;3.70;99.90
2907;DHT22;1463;51.070;16.998;2024-03-08T00:40:06;3.70;99.90
2907;DHT22;1463;51.070;16.998;2024-03-08T00:42:34;3.70;99.90
2907;DHT22;1463;51.070;16.998;2024-03-08T00:45:01;3.70;99.90
2907;DHT22;1463;51.070;16.998;2024-03-08T00:47:28;3.60;99.90
2907;DHT22;1463;51.070;16.998;2024-03-08T00:49:55;3.60;99.90
2907;DHT22;1463;51.070;16.998;2024-03-08T00:52:22;3.60;99.90
2907;DHT22;1463;51.070;16.998;2024-03-08T00:54:50;3.60;99.90
2907;DHT22;1463;51.070;16.998;2024-03-08T00:57:17;3.60;99.90
2907;DHT22;1463;51.070;16.998;2024-03-08T00:59:44;3.50;99.90
2907;DHT22;1463;51.070;16.998;2024-03-08T01:02:11;3.50;99.90
2907;DHT22;1463;51.070;16.998;2024-03-08T01:04:38;3.50;99.90
2907;DHT22;1463;51.070;16.998;2024-03-08T01:07:04;3.50;99.90
2907;DHT22;1463;51.070;16.998;2024-03-08T01:09:31;3.40;99.90
2907;DHT22;1463;51.070;16.998;2024-03-08T01:11:59;3.40;99.90
2907;DHT22;1463;51.070;16.998;2024-03-08T01:14:26;3.40;99.90
2907;DHT22;1463;51.070;16.998;2024-03-08T01:16:54;3.30;99.90
2907;DHT22;1463;51.070;16.998;2024-03-08T01:19:21;3.40;99.90
2907;DHT22;1463;51.070;16.998;2024-03-08T01:21:49;3.40;99.90
2907;DHT22;1463;51.070;16.998;2024-03-08T01:24:16;3.40;99.90
2907;DHT22;1463;51.070;16.998;2024-03-08T01:26:43;3.40;99.90
2907;DHT22;1463;51.070;16.998;2024-03-08T01:29:11;3.30;99.90
2907;DHT22;1463;51.070;16.998;2024-03-08T01:31:38;3.30;99.90
2907;DHT22;1463;51.070;16.998;2024-03-08T01:34:05;3.30;99.90
2907;DHT22;1463;51.070;16.998;2024-03-08T01:36:31;3.40;99.90
2907;DHT22;1463;51.070;16.998;2024-03-08T01:38:58;3.30;99.90
2907;DHT22;1463;51.070;16.998;2024-03-08T01:41:25;3.20;99.90
2907;DHT22;1463;51.070;16.998;2024-03-08T01:43:53;3.30;99.90
2907;DHT22;1463;51.070;16.998;2024-03-08T01:46:21;3.30;99.90
2907;DHT22;1463;51.070;16.998;2024-03-08T01:48:49;3.20;99.90
2907;DHT22;1463;51.070;16.998;2024-03-08T01:51:16;3.20;99.90
2907;DHT22;1463;51.070;16.998;2024-03-08T01:53:45;3.10;99.90
2907;DHT22;1463;51.070;16.998;2024-03-08T01:56:13;3.00;99.90
2907;DHT22;1463;51.070;16.998;2024-03-08T01:58:41;3.00;99.90
2907;DHT22;1463;51.070;16.998;2024-03-08T02:01:08;3.20;99.90
2907;DHT22;1463;51.070;16.998;2024-03-08T02:03:38;3.10;99.90
2907;DHT22;1463;51.070;16.998;2024-03-08T02:06:04;3.10;99.90
2907;DHT22;1463;51.070;16.998;2024-03-08T02:08:35;3.10;99.90
2907;DHT22;1463;51.070;16.998;2024-03-08T02:11:02;3.00;99.90
2907;DHT22;1463;51.070;16.998;2024-03-08T02:13:29;3.00;99.90
2907;DHT22;1463;51.070;16.998;2024-03-08T02:15:56;3.00;99.90
2907;DHT22;1463;51.070;16.998;2024-03-08T02:18:25;3.00;99.90
2907;DHT22;1463;51.070;16.998;2024-03-08T02:20:53;2.90;99.90
2907;DHT22;1463;51.070;16.998;2024-03-08T02:23:20;2.90;99.90
2907;DHT22;1463;51.070;16.998;2024-03-08T02:25:47;2.90;99.90
2907;DHT22;1463;51.070;16.998;2024-03-08T02:28:14;3.00;99.90
2907;DHT22;1463;51.070;16.998;2024-03-08T02:30:41;3.00;99.90
2907;DHT22;1463;51.070;16.998;2024-03-08T02:33:08;2.90;99.90
2907;DHT22;1463;51.070;16.998;2024-03-08T02:35:35;3.00;99.90
2907;DHT22;1463;51.070;16.998;2024-03-08T02:38:03;3.00;99.90
2907;DHT22;1463;51.070;16.998;2024-03-08T02:40:30;3.00;99.90
2907;DHT22;1463;51.070;16.998;2024-03-08T02:42:57;2.90;99.90
2907;DHT22;1463;51.070;16.998;2024-03-08T02:45:24;2.90;99.90
2907;DHT22;1463;51.070;16.998;2024-03-08T02:47:51;2.90;99.90
2907;DHT22;1463;51.070;16.998;2024-03-08T02:50:18;2.90;99.90
2907;DHT22;1463;51.070;16.998;2024-03-08T02:52:45;2.80;99.90
2907;DHT22;1463;51.070;16.998;2024-03-08T02:55:14;2.90;99.90
2907;DHT22;1463;51.070;16.998;2024-03-08T02:57:41;2.90;99.90
2907;DHT22;1463;51.070;16.998;2024-03-08T03:00:09;2.80;99.90
2907;DHT22;1463;51.070;16.998;2024-03-08T03:02:36;2.70;99.90
2907;DHT22;1463;51.070;16.998;2024-03-08T03:05:04;2.70;99.90
2907;DHT22;1463;51.070;16.998;2024-03-08T03:07:31;2.70;99.90
2907;DHT22;1463;51.070;16.998;2024-03-08T03:09:58;2.70;99.90
2907;DHT22;1463;51.070;16.998;2024-03-08T03:12:27;2.60;99.90
2907;DHT22;1463;51.070;16.998;2024-03-08T03:14:53;2.60;99.90
2907;DHT22;1463;51.070;16.998;2024-03-08T03:17:21;2.50;99.90
2907;DHT22;1463;51.070;16.998;2024-03-08T03:19:48;2.50;99.90
2907;DHT22;1463;51.070;16.998;2024-03-08T03:22:15;2.40;99.90
2907;DHT22;1463;51.070;16.998;2024-03-08T03:24:42;2.40;99.90
2907;DHT22;1463;51.070;16.998;2024-03-08T03:27:08;2.50;99.90
2907;DHT22;1463;51.070;16.998;2024-03-08T03:29:38;2.50;99.90
2907;DHT22;1463;51.070;16.998;2024-03-08T03:32:07;2.50;99.90
2907;DHT22;1463;51.070;16.998;2024-03-08T03:34:34;2.40;99.90
2907;DHT22;1463;51.070;16.998;2024-03-08T03:37:02;2.30;99.90
2907;DHT22;1463;51.070;16.998;2024-03-08T03:39:28;2.30;99.90
2907;DHT22;1463;51.070;16.998;2024-03-08T03:41:57;2.30;99.90
2907;DHT22;1463;51.070;16.998;2024-03-08T03:44:24;2.20;99.90
2907;DHT22;1463;51.070;16.998;2024-03-08T03:46:52;2.20;99.90
2907;DHT22;1463;51.070;16.998;2024-03-08T03:49:18;2.20;99.90
2907;DHT22;1463;51.070;16.998;2024-03-08T03:51:45;2.10;99.90
2907;DHT22;1463;51.070;16.998;2024-03-08T03:54:12;2.20;99.90
2907;DHT22;1463;51.070;16.998;2024-03-08T03:56:39;2.20;99.90
2907;DHT22;1463;51.070;16.998;2024-03-08T03:59:06;2.20;99.90
2907;DHT22;1463;51.070;16.998;2024-03-08T04:01:32;2.20;99.90
2907;DHT22;1463;51.070;16.998;2024-03-08T04:04:00;2.20;99.90
2907;DHT22;1463;51.070;16.998;2024-03-08T04:06:27;2.20;99.90
2907;DHT22;1463;51.070;16.998;2024-03-08T04:08:54;2.20;99.90
2907;DHT22;1463;51.070;16.998;2024-03-08T04:11:20;2.10;99.90
2907;DHT22;1463;51.070;16.998;2024-03-08T04:13:47;2.00;99.90
2907;DHT22;1463;51.070;16.998;2024-03-08T04:16:14;2.00;99.90
2907;DHT22;1463;51.070;16.998;2024-03-08T04:18:41;2.10;99.90
2907;DHT22;1463;51.070;16.998;2024-03-08T04:21:09;1.90;99.90
2907;DHT22;1463;51.070;16.998;2024-03-08T04:23:36;2.00;99.90
2907;DHT22;1463;51.070;16.998;2024-03-08T04:26:03;2.00;99.90
2907;DHT22;1463;51.070;16.998;2024-03-08T04:28:32;2.00;99.90
2907;DHT22;1463;51.070;16.998;2024-03-08T04:30:58;1.90;99.90
2907;DHT22;1463;51.070;16.998;2024-03-08T04:33:26;1.90;99.90
2907;DHT22;1463;51.070;16.998;2024-03-08T04:35:53;1.90;99.90
2907;DHT22;1463;51.070;16.998;2024-03-08T04:38:21;1.90;99.90
2907;DHT22;1463;51.070;16.998;2024-03-08T04:40:48;2.00;99.90
2907;DHT22;1463;51.070;16.998;2024-03-08T04:43:15;1.90;99.90
2907;DHT22;1463;51.070;16.998;2024-03-08T04:45:43;1.80;99.90
2907;DHT22;1463;51.070;16.998;2024-03-08T04:48:10;1.80;99.90
2907;DHT22;1463;51.070;16.998;2024-03-08T04:50:38;1.80;99.90
2907;DHT22;1463;51.070;16.998;2024-03-08T04:53:05;1.70;99.90
2907;DHT22;1463;51.070;16.998;2024-03-08T04:55:34;1.80;99.90
2907;DHT22;1463;51.070;16.998;2024-03-08T04:58:03;1.70;99.90
2907;DHT22;1463;51.070;16.998;2024-03-08T05:00:31;1.60;99.90
2907;DHT22;1463;51.070;16.998;2024-03-08T05:02:57;1.60;99.90
2907;DHT22;1463;51.070;16.998;2024-03-08T05:05:24;1.60;99.90
2907;DHT22;1463;51.070;16.998;2024-03-08T05:07:51;1.70;99.90
2907;DHT22;1463;51.070;16.998;2024-03-08T05:10:18;1.70;99.90
2907;DHT22;1463;51.070;16.998;2024-03-08T05:12:47;1.60;99.90
2907;DHT22;1463;51.070;16.998;2024-03-08T05:15:13;1.50;99.90
2907;DHT22;1463;51.070;16.998;2024-03-08T05:17:40;1.50;99.90
2907;DHT22;1463;51.070;16.998;2024-03-08T05:20:08;1.70;99.90
2907;DHT22;1463;51.070;16.998;2024-03-08T05:22:38;1.60;99.90
2907;DHT22;1463;51.070;16.998;2024-03-08T05:25:05;1.60;99.90
2907;DHT22;1463;51.070;16.998;2024-03-08T05:27:33;1.60;99.90
2907;DHT22;1463;51.070;16.998;2024-03-08T05:30:02;1.60;99.90
2907;DHT22;1463;51.070;16.998;2024-03-08T05:32:29;1.60;99.90
2907;DHT22;1463;51.070;16.998;2024-03-08T05:34:56;1.50;99.90
2907;DHT22;1463;51.070;16.998;2024-03-08T05:37:23;1.50;99.90
2907;DHT22;1463;51.070;16.998;2024-03-08T05:39:49;1.60;99.90
2907;DHT22;1463;51.070;16.998;2024-03-08T05:42:15;1.50;99.90
2907;DHT22;1463;51.070;16.998;2024-03-08T05:44:42;1.50;99.90
2907;DHT22;1463;51.070;16.998;2024-03-08T05:47:10;1.50;99.90
2907;DHT22;1463;51.070;16.998;2024-03-08T05:49:37;1.40;99.90
2907;DHT22;1463;51.070;16.998;2024-03-08T05:52:04;1.00;99.90
2907;DHT22;1463;51.070;16.998;2024-03-08T05:54:31;1.20;99.90
2907;DHT22;1463;51.070;16.998;2024-03-08T05:56:58;1.30;99.90
2907;DHT22;1463;51.070;16.998;2024-03-08T05:59:25;1.40;99.90
2907;DHT22;1463;51.070;16.998;2024-03-08T06:01:52;1.40;99.90
2907;DHT22;1463;51.070;16.998;2024-03-08T06:04:20;1.40;99.90
2907;DHT22;1463;51.070;16.998;2024-03-08T06:06:47;1.40;99.90
2907;DHT22;1463;51.070;16.998;2024-03-08T06:09:13;1.40;99.90
2907;DHT22;1463;51.070;16.998;2024-03-08T06:11:43;1.40;99.90
2907;DHT22;1463;51.070;16.998;2024-03-08T06:14:09;1.50;99.90
2907;DHT22;1463;51.070;16.998;2024-03-08T06:16:36;1.40;99.90
2907;DHT22;1463;51.070;16.998;2024-03-08T06:19:03;1.40;99.90
2907;DHT22;1463;51.070;16.998;2024-03-08T06:21:32;1.40;99.90
2907;DHT22;1463;51.070;16.998;2024-03-08T06:23:59;1.40;99.90
2907;DHT22;1463;51.070;16.998;2024-03-08T06:26:25;1.40;99.90
2907;DHT22;1463;51.070;16.998;2024-03-08T06:28:54;1.40;99.90
2907;DHT22;1463;51.070;16.998;2024-03-08T06:31:20;1.40;99.90
2907;DHT22;1463;51.070;16.998;2024-03-08T06:33:47;1.50;99.90
2907;DHT22;1463;51.070;16.998;2024-03-08T06:36:16;1.40;99.90
2907;DHT22;1463;51.070;16.998;2024-03-08T06:38:45;1.50;99.90
2907;DHT22;1463;51.070;16.998;2024-03-08T06:41:12;1.40;99.90
2907;DHT22;1463;51.070;16.998;2024-03-08T06:43:41;1.50;99.90
2907;DHT22;1463;51.070;16.998;2024-03-08T06:46:08;1.60;99.90
2907;DHT22;1463;51.070;16.998;2024-03-08T06:48:42;1.70;99.90
2907;DHT22;1463;51.070;16.998;2024-03-08T06:51:10;1.80;99.90
2907;DHT22;1463;51.070;16.998;2024-03-08T06:53:37;1.70;99.90
2907;DHT22;1463;51.070;16.998;2024-03-08T06:56:06;1.70;99.90
2907;DHT22;1463;51.070;16.998;2024-03-08T06:58:33;1.80;99.90
2907;DHT22;1463;51.070;16.998;2024-03-08T07:01:02;1.90;99.90
2907;DHT22;1463;51.070;16.998;2024-03-08T07:03:32;1.70;99.90
2907;DHT22;1463;51.070;16.998;2024-03-08T07:05:59;1.70;99.90
2907;DHT22;1463;51.070;16.998;2024-03-08T07:08:27;1.60;99.90
2907;DHT22;1463;51.070;16.998;2024-03-08T07:10:55;1.70;99.90
2907;DHT22;1463;51.070;16.998;2024-03-08T07:13:24;2.00;99.90
2907;DHT22;1463;51.070;16.998;2024-03-08T07:15:53;2.20;99.90
2907;DHT22;1463;51.070;16.998;2024-03-08T07:18:20;2.10;99.90
2907;DHT22;1463;51.070;16.998;2024-03-08T07:20:50;2.00;99.90
2907;DHT22;1463;51.070;16.998;2024-03-08T07:23:17;2.10;99.90
2907;DHT22;1463;51.070;16.998;2024-03-08T07:25:57;2.40;99.90
2907;DHT22;1463;51.070;16.998;2024-03-08T07:28:30;2.20;99.90
2907;DHT22;1463;51.070;16.998;2024-03-08T07:30:57;2.10;99.90
2907;DHT22;1463;51.070;16.998;2024-03-08T07:33:38;2.20;99.90
2907;DHT22;1463;51.070;16.998;2024-03-08T07:36:05;2.10;99.90
2907;DHT22;1463;51.070;16.998;2024-03-08T07:38:31;2.30;99.90
2907;DHT22;1463;51.070;16.998;2024-03-08T07:40:58;2.30;99.90
2907;DHT22;1463;51.070;16.998;2024-03-08T07:43:25;2.60;99.90
2907;DHT22;1463;51.070;16.998;2024-03-08T07:45:53;2.60;99.90
2907;DHT22;1463;51.070;16.998;2024-03-08T07:48:20;2.90;99.90
2907;DHT22;1463;51.070;16.998;2024-03-08T07:50:47;3.10;99.90
2907;DHT22;1463;51.070;16.998;2024-03-08T07:53:23;3.00;99.90
2907;DHT22;1463;51.070;16.998;2024-03-08T07:55:54;3.30;99.90
2907;DHT22;1463;51.070;16.998;2024-03-08T07:58:21;3.50;99.90
2907;DHT22;1463;51.070;16.998;2024-03-08T08:00:49;4.10;99.90
2907;DHT22;1463;51.070;16.998;2024-03-08T08:03:17;4.70;99.90
2907;DHT22;1463;51.070;16.998;2024-03-08T08:05:46;5.40;99.90
2907;DHT22;1463;51.070;16.998;2024-03-08T08:08:14;5.80;99.90
2907;DHT22;1463;51.070;16.998;2024-03-08T08:10:41;6.10;99.90
2907;DHT22;1463;51.070;16.998;2024-03-08T08:13:07;6.30;99.90
2907;DHT22;1463;51.070;16.998;2024-03-08T08:15:34;6.40;99.90
2907;DHT22;1463;51.070;16.998;2024-03-08T08:18:01;6.70;99.90
2907;DHT22;1463;51.070;16.998;2024-03-08T08:20:29;7.20;99.90
2907;DHT22;1463;51.070;16.998;2024-03-08T08:22:56;7.60;99.90
2907;DHT22;1463;51.070;16.998;2024-03-08T08:25:24;7.70;99.90
2907;DHT22;1463;51.070;16.998;2024-03-08T08:27:51;7.50;99.90
2907;DHT22;1463;51.070;16.998;2024-03-08T08:30:19;7.10;99.90
2907;DHT22;1463;51.070;16.998;2024-03-08T08:32:46;5.90;99.90
2907;DHT22;1463;51.070;16.998;2024-03-08T08:35:14;5.10;99.90
2907;DHT22;1463;51.070;16.998;2024-03-08T08:37:42;4.80;99.90
2907;DHT22;1463;51.070;16.998;2024-03-08T08:40:10;5.10;99.90
2907;DHT22;1463;51.070;16.998;2024-03-08T08:42:40;5.00;99.90
2907;DHT22;1463;51.070;16.998;2024-03-08T08:45:07;4.60;99.90
2907;DHT22;1463;51.070;16.998;2024-03-08T08:47:35;4.70;99.90
2907;DHT22;1463;51.070;16.998;2024-03-08T08:50:01;4.70;99.90
2907;DHT22;1463;51.070;16.998;2024-03-08T08:52:29;4.80;99.90
2907;DHT22;1463;51.070;16.998;2024-03-08T08:54:57;4.80;99.90
2907;DHT22;1463;51.070;16.998;2024-03-08T08:57:24;4.50;99.90
2907;DHT22;1463;51.070;16.998;2024-03-08T08:59:52;4.40;99.90
2907;DHT22;1463;51.070;16.998;2024-03-08T09:02:19;4.10;99.90
2907;DHT22;1463;51.070;16.998;2024-03-08T09:04:46;4.30;99.90
2907;DHT22;1463;51.070;16.998;2024-03-08T09:07:14;4.60;99.90
2907;DHT22;1463;51.070;16.998;2024-03-08T09:09:42;4.80;99.90
2907;DHT22;1463;51.070;16.998;2024-03-08T09:12:10;4.80;99.90
2907;DHT22;1463;51.070;16.998;2024-03-08T09:14:38;4.80;99.90
2907;DHT22;1463;51.070;16.998;2024-03-08T09:17:05;4.90;99.90
2907;DHT22;1463;51.070;16.998;2024-03-08T09:19:33;4.90;99.90
2907;DHT22;1463;51.070;16.998;2024-03-08T09:22:00;5.00;99.90
2907;DHT22;1463;51.070;16.998;2024-03-08T09:24:29;4.70;99.90
2907;DHT22;1463;51.070;16.998;2024-03-08T09:26:56;4.80;99.90
2907;DHT22;1463;51.070;16.998;2024-03-08T09:29:25;5.00;99.90
2907;DHT22;1463;51.070;16.998;2024-03-08T09:31:52;4.80;99.90
2907;DHT22;1463;51.070;16.998;2024-03-08T09:34:19;4.70;99.90
2907;DHT22;1463;51.070;16.998;2024-03-08T09:36:45;4.80;99.90
2907;DHT22;1463;51.070;16.998;2024-03-08T09:39:12;4.80;99.90
2907;DHT22;1463;51.070;16.998;2024-03-08T09:41:42;4.70;99.90
2907;DHT22;1463;51.070;16.998;2024-03-08T09:44:09;5.00;99.90
2907;DHT22;1463;51.070;16.998;2024-03-08T09:46:37;4.90;99.90
2907;DHT22;1463;51.070;16.998;2024-03-08T09:49:04;4.60;99.90
2907;DHT22;1463;51.070;16.998;2024-03-08T09:51:33;4.70;99.90
2907;DHT22;1463;51.070;16.998;2024-03-08T09:54:01;4.70;99.90
2907;DHT22;1463;51.070;16.998;2024-03-08T09:56:32;4.80;99.90
2907;DHT22;1463;51.070;16.998;2024-03-08T09:58:59;4.90;99.90
2907;DHT22;1463;51.070;16.998;2024-03-08T10:01:59;5.10;99.90
2907;DHT22;1463;51.070;16.998;2024-03-08T10:04:28;5.00;99.90
2907;DHT22;1463;51.070;16.998;2024-03-08T10:06:57;5.10;99.90
2907;DHT22;1463;51.070;16.998;2024-03-08T10:09:24;5.00;99.90
2907;DHT22;1463;51.070;16.998;2024-03-08T10:11:53;5.10;99.90
2907;DHT22;1463;51.070;16.998;2024-03-08T10:14:21;5.00;99.90
2907;DHT22;1463;51.070;16.998;2024-03-08T10:16:48;5.00;99.90
2907;DHT22;1463;51.070;16.998;2024-03-08T10:19:15;5.40;99.90
2907;DHT22;1463;51.070;16.998;2024-03-08T10:21:48;5.60;99.90
2907;DHT22;1463;51.070;16.998;2024-03-08T10:24:15;5.60;99.90
2907;DHT22;1463;51.070;16.998;2024-03-08T10:26:42;5.80;99.90
2907;DHT22;1463;51.070;16.998;2024-03-08T10:29:09;5.80;99.90
2907;DHT22;1463;51.070;16.998;2024-03-08T10:31:43;5.60;99.90
2907;DHT22;1463;51.070;16.998;2024-03-08T10:34:09;5.60;99.90
2907;DHT22;1463;51.070;16.998;2024-03-08T10:36:39;8.40;99.90
2907;DHT22;1463;51.070;16.998;2024-03-08T10:39:13;10.20;99.90
2907;DHT22;1463;51.070;16.998;2024-03-08T10:41:44;10.50;99.90
2907;DHT22;1463;51.070;16.998;2024-03-08T10:44:25;10.00;96.70
2907;DHT22;1463;51.070;16.998;2024-03-08T10:47:00;9.70;99.10
2907;DHT22;1463;51.070;16.998;2024-03-08T10:49:31;9.60;98.40
2907;DHT22;1463;51.070;16.998;2024-03-08T10:52:02;9.60;98.40
2907;DHT22;1463;51.070;16.998;2024-03-08T10:54:30;9.00;98.70
2907;DHT22;1463;51.070;16.998;2024-03-08T10:56:59;9.70;98.50
2907;DHT22;1463;51.070;16.998;2024-03-08T10:59:26;9.90;97.70
2907;DHT22;1463;51.070;16.998;2024-03-08T11:01:54;9.80;96.80
2907;DHT22;1463;51.070;16.998;2024-03-08T11:04:20;9.90;96.50
2907;DHT22;1463;51.070;16.998;2024-03-08T11:06:50;10.30;95.60
2907;DHT22;1463;51.070;16.998;2024-03-08T11:09:29;10.20;94.90
2907;DHT22;1463;51.070;16.998;2024-03-08T11:12:19;9.60;95.10
2907;DHT22;1463;51.070;16.998;2024-03-08T11:14:47;9.20;95.50
2907;DHT22;1463;51.070;16.998;2024-03-08T11:17:15;9.40;95.90
2907;DHT22;1463;51.070;16.998;2024-03-08T11:19:47;9.90;95.20
2907;DHT22;1463;51.070;16.998;2024-03-08T11:22:24;9.90;94.80
2907;DHT22;1463;51.070;16.998;2024-03-08T11:24:58;9.80;94.50
2907;DHT22;1463;51.070;16.998;2024-03-08T11:27:29;10.00;92.60
2907;DHT22;1463;51.070;16.998;2024-03-08T11:30:00;10.30;92.10
2907;DHT22;1463;51.070;16.998;2024-03-08T11:32:35;10.30;92.10
2907;DHT22;1463;51.070;16.998;2024-03-08T11:35:06;10.10;92.30
2907;DHT22;1463;51.070;16.998;2024-03-08T11:37:34;10.40;92.20
2907;DHT22;1463;51.070;16.998;2024-03-08T11:40:12;10.40;91.00
2907;DHT22;1463;51.070;16.998;2024-03-08T11:42:45;10.50;90.30
2907;DHT22;1463;51.070;16.998;2024-03-08T11:45:13;10.70;91.40
2907;DHT22;1463;51.070;16.998;2024-03-08T11:47:42;11.00;91.40
2907;DHT22;1463;51.070;16.998;2024-03-08T11:50:11;11.00;89.30
2907;DHT22;1463;51.070;16.998;2024-03-08T11:52:38;10.30;89.10
2907;DHT22;1463;51.070;16.998;2024-03-08T11:55:07;10.30;89.70
2907;DHT22;1463;51.070;16.998;2024-03-08T11:57:34;10.20;88.70
2907;DHT22;1463;51.070;16.998;2024-03-08T12:00:03;10.30;87.20
2907;DHT22;1463;51.070;16.998;2024-03-08T12:02:36;10.60;85.40
2907;DHT22;1463;51.070;16.998;2024-03-08T12:05:04;11.00;86.40
2907;DHT22;1463;51.070;16.998;2024-03-08T12:07:41;11.20;85.40
2907;DHT22;1463;51.070;16.998;2024-03-08T12:10:17;11.20;84.00
2907;DHT22;1463;51.070;16.998;2024-03-08T12:12:44;10.20;84.20
2907;DHT22;1463;51.070;16.998;2024-03-08T12:15:12;9.70;87.40
2907;DHT22;1463;51.070;16.998;2024-03-08T12:17:39;10.40;86.90
2907;DHT22;1463;51.070;16.998;2024-03-08T12:20:15;10.50;83.90
2907;DHT22;1463;51.070;16.998;2024-03-08T12:22:42;10.40;83.70
2907;DHT22;1463;51.070;16.998;2024-03-08T12:25:11;10.60;84.00
2907;DHT22;1463;51.070;16.998;2024-03-08T12:27:45;10.60;84.00
2907;DHT22;1463;51.070;16.998;2024-03-08T12:30:21;10.40;84.20
2907;DHT22;1463;51.070;16.998;2024-03-08T12:32:50;9.60;83.90
2907;DHT22;1463;51.070;16.998;2024-03-08T12:35:19;9.50;85.90
2907;DHT22;1463;51.070;16.998;2024-03-08T12:37:48;10.00;85.20
2907;DHT22;1463;51.070;16.998;2024-03-08T12:40:17;10.50;84.20
2907;DHT22;1463;51.070;16.998;2024-03-08T12:42:45;10.70;85.00
2907;DHT22;1463;51.070;16.998;2024-03-08T12:45:13;10.80;83.80
2907;DHT22;1463;51.070;16.998;2024-03-08T12:47:40;10.70;82.70
2907;DHT22;1463;51.070;16.998;2024-03-08T12:50:09;10.80;84.30
2907;DHT22;1463;51.070;16.998;2024-03-08T12:52:36;10.80;82.60
2907;DHT22;1463;51.070;16.998;2024-03-08T12:55:03;10.70;82.40
2907;DHT22;1463;51.070;16.998;2024-03-08T12:57:32;10.60;82.40
2907;DHT22;1463;51.070;16.998;2024-03-08T13:00:01;10.70;83.80
2907;DHT22;1463;51.070;16.998;2024-03-08T13:02:29;10.70;82.60
2907;DHT22;1463;51.070;16.998;2024-03-08T13:04:56;10.20;81.50
2907;DHT22;1463;51.070;16.998;2024-03-08T13:07:24;10.00;82.70
2907;DHT22;1463;51.070;16.998;2024-03-08T13:09:51;10.40;83.40
2907;DHT22;1463;51.070;16.998;2024-03-08T13:12:18;10.60;82.10
2907;DHT22;1463;51.070;16.998;2024-03-08T13:14:45;10.60;82.10
2907;DHT22;1463;51.070;16.998;2024-03-08T13:17:14;10.70;81.70
2907;DHT22;1463;51.070;16.998;2024-03-08T13:19:41;10.70;81.10
2907;DHT22;1463;51.070;16.998;2024-03-08T13:22:08;10.80;81.30
2907;DHT22;1463;51.070;16.998;2024-03-08T13:24:38;10.80;80.30
2907;DHT22;1463;51.070;16.998;2024-03-08T13:27:06;10.80;80.60
2907;DHT22;1463;51.070;16.998;2024-03-08T13:29:42;10.60;80.30
2907;DHT22;1463;51.070;16.998;2024-03-08T13:32:09;10.20;80.00
2907;DHT22;1463;51.070;16.998;2024-03-08T13:34:40;10.10;80.00
2907;DHT22;1463;51.070;16.998;2024-03-08T13:37:07;10.20;79.90
2907;DHT22;1463;51.070;16.998;2024-03-08T13:39:35;10.00;80.50
2907;DHT22;1463;51.070;16.998;2024-03-08T13:42:06;10.30;81.70
2907;DHT22;1463;51.070;16.998;2024-03-08T13:44:35;10.40;81.30
2907;DHT22;1463;51.070;16.998;2024-03-08T13:47:01;10.60;81.90
2907;DHT22;1463;51.070;16.998;2024-03-08T13:49:30;10.60;80.50
2907;DHT22;1463;51.070;16.998;2024-03-08T13:51:58;10.60;79.60
2907;DHT22;1463;51.070;16.998;2024-03-08T13:54:25;10.60;79.80
2907;DHT22;1463;51.070;16.998;2024-03-08T13:56:55;10.50;79.70
2907;DHT22;1463;51.070;16.998;2024-03-08T13:59:22;10.40;80.60
2907;DHT22;1463;51.070;16.998;2024-03-08T14:01:49;10.50;80.60
2907;DHT22;1463;51.070;16.998;2024-03-08T14:04:16;10.50;80.30
2907;DHT22;1463;51.070;16.998;2024-03-08T14:06:43;10.70;80.50
2907;DHT22;1463;51.070;16.998;2024-03-08T14:09:12;10.40;80.30
2907;DHT22;1463;51.070;16.998;2024-03-08T14:11:42;10.40;81.50
2907;DHT22;1463;51.070;16.998;2024-03-08T14:14:09;10.50;81.70
2907;DHT22;1463;51.070;16.998;2024-03-08T14:16:37;10.60;83.50
2907;DHT22;1463;51.070;16.998;2024-03-08T14:19:04;10.50;81.50
2907;DHT22;1463;51.070;16.998;2024-03-08T14:21:32;10.20;81.10
2907;DHT22;1463;51.070;16.998;2024-03-08T14:23:58;10.20;82.00
2907;DHT22;1463;51.070;16.998;2024-03-08T14:26:26;10.20;82.00
2907;DHT22;1463;51.070;16.998;2024-03-08T14:28:53;10.30;82.60
2907;DHT22;1463;51.070;16.998;2024-03-08T14:31:20;10.30;80.80
2907;DHT22;1463;51.070;16.998;2024-03-08T14:33:51;10.20;80.20
2907;DHT22;1463;51.070;16.998;2024-03-08T14:36:18;10.10;80.60
2907;DHT22;1463;51.070;16.998;2024-03-08T14:38:45;10.10;80.10
2907;DHT22;1463;51.070;16.998;2024-03-08T14:41:12;9.90;81.60
2907;DHT22;1463;51.070;16.998;2024-03-08T14:43:42;10.00;81.70
2907;DHT22;1463;51.070;16.998;2024-03-08T14:46:10;10.00;81.30
2907;DHT22;1463;51.070;16.998;2024-03-08T14:48:39;9.70;82.30
2907;DHT22;1463;51.070;16.998;2024-03-08T14:51:06;9.90;83.00
2907;DHT22;1463;51.070;16.998;2024-03-08T14:53:36;10.00;82.30
2907;DHT22;1463;51.070;16.998;2024-03-08T14:56:06;9.90;83.00
2907;DHT22;1463;51.070;16.998;2024-03-08T14:58:33;9.70;83.40
2907;DHT22;1463;51.070;16.998;2024-03-08T15:01:01;9.80;83.70
2907;DHT22;1463;51.070;16.998;2024-03-08T15:03:28;9.80;84.40
2907;DHT22;1463;51.070;16.998;2024-03-08T15:05:55;9.70;84.80
2907;DHT22;1463;51.070;16.998;2024-03-08T15:08:22;9.60;85.10
2907;DHT22;1463;51.070;16.998;2024-03-08T15:10:49;9.60;85.50
2907;DHT22;1463;51.070;16.998;2024-03-08T15:13:19;9.80;86.50
2907;DHT22;1463;51.070;16.998;2024-03-08T15:15:48;9.50;85.20
2907;DHT22;1463;51.070;16.998;2024-03-08T15:18:25;9.20;86.80
2907;DHT22;1463;51.070;16.998;2024-03-08T15:21:01;9.30;87.40
2907;DHT22;1463;51.070;16.998;2024-03-08T15:23:37;9.10;87.70
2907;DHT22;1463;51.070;16.998;2024-03-08T15:26:09;8.90;88.60
2907;DHT22;1463;51.070;16.998;2024-03-08T15:28:35;9.00;89.10
2907;DHT22;1463;51.070;16.998;2024-03-08T15:31:03;9.20;89.70
2907;DHT22;1463;51.070;16.998;2024-03-08T15:33:35;9.20;89.60
2907;DHT22;1463;51.070;16.998;2024-03-08T15:36:07;9.00;89.00
2907;DHT22;1463;51.070;16.998;2024-03-08T15:38:38;8.80;89.80
2907;DHT22;1463;51.070;16.998;2024-03-08T15:41:05;8.80;90.30
2907;DHT22;1463;51.070;16.998;2024-03-08T15:43:35;8.80;90.40
2907;DHT22;1463;51.070;16.998;2024-03-08T15:46:02;8.80;90.90
2907;DHT22;1463;51.070;16.998;2024-03-08T15:48:30;8.70;91.00
2907;DHT22;1463;51.070;16.998;2024-03-08T15:50:59;8.50;91.50
2907;DHT22;1463;51.070;16.998;2024-03-08T15:53:28;8.50;91.70
2907;DHT22;1463;51.070;16.998;2024-03-08T15:55:55;8.40;92.10
2907;DHT22;1463;51.070;16.998;2024-03-08T15:58:22;8.30;92.00
2907;DHT22;1463;51.070;16.998;2024-03-08T16:00:49;8.20;92.30
2907;DHT22;1463;51.070;16.998;2024-03-08T16:03:18;8.10;92.40